sensor_id;sensor_type;location;lat;lon;timestamp;P1;durP1;ratioP1;P2;durP2;ratioP2
15342;SDS011;7771;48.478;8.936;2022-12-20T00:00:14;27.20;;;18.00;;
15342;SDS011;7771;48.478;8.936;2022-12-20T00:02:41;30.77;;;20.07;;
15342;SDS011;7771;48.478;8.936;2022-12-20T00:05:09;29.13;;;18.70;;
15342;SDS011;7771;48.478;8.936;2022-12-20T00:07:35;28.03;;;19.17;;
15342;SDS011;7771;48.478;8.936;2022-12-20T00:10:02;34.73;;;19.87;;
15342;SDS011;7771;48.478;8.936;2022-12-20T00:12:28;27.57;;;19.77;;
15342;SDS011;7771;48.478;8.936;2022-12-20T00:14:56;36.77;;;22.50;;
15342;SDS011;7771;48.478;8.936;2022-12-20T00:17:24;42.17;;;28.33;;
15342;SDS011;7771;48.478;8.936;2022-12-20T00:19:50;41.43;;;28.47;;
15342;SDS011;7771;48.478;8.936;2022-12-20T00:22:17;43.10;;;27.80;;
15342;SDS011;7771;48.478;8.936;2022-12-20T00:24:44;50.10;;;31.13;;
15342;SDS011;7771;48.478;8.936;2022-12-20T00:27:11;50.17;;;31.33;;
15342;SDS011;7771;48.478;8.936;2022-12-20T00:29:38;46.83;;;30.77;;
15342;SDS011;7771;48.478;8.936;2022-12-20T00:32:05;53.83;;;32.97;;
15342;SDS011;7771;48.478;8.936;2022-12-20T00:34:32;50.13;;;31.60;;
15342;SDS011;7771;48.478;8.936;2022-12-20T00:36:59;59.57;;;36.63;;
15342;SDS011;7771;48.478;8.936;2022-12-20T00:39:26;57.77;;;36.67;;
15342;SDS011;7771;48.478;8.936;2022-12-20T00:41:53;60.83;;;35.93;;
15342;SDS011;7771;48.478;8.936;2022-12-20T00:44:21;55.63;;;35.10;;
15342;SDS011;7771;48.478;8.936;2022-12-20T00:46:48;54.00;;;34.73;;
15342;SDS011;7771;48.478;8.936;2022-12-20T00:49:15;52.20;;;35.20;;
15342;SDS011;7771;48.478;8.936;2022-12-20T00:51:42;61.43;;;36.10;;
15342;SDS011;7771;48.478;8.936;2022-12-20T00:54:09;58.27;;;36.20;;
15342;SDS011;7771;48.478;8.936;2022-12-20T00:56:36;57.73;;;36.30;;
15342;SDS011;7771;48.478;8.936;2022-12-20T00:59:03;52.83;;;34.17;;
15342;SDS011;7771;48.478;8.936;2022-12-20T01:01:30;55.43;;;34.93;;
15342;SDS011;7771;48.478;8.936;2022-12-20T01:03:57;55.17;;;33.60;;
15342;SDS011;7771;48.478;8.936;2022-12-20T01:06:25;56.67;;;35.47;;
15342;SDS011;7771;48.478;8.936;2022-12-20T01:08:52;58.93;;;37.60;;
15342;SDS011;7771;48.478;8.936;2022-12-20T01:11:19;63.03;;;41.80;;
15342;SDS011;7771;48.478;8.936;2022-12-20T01:13:48;63.30;;;40.40;;
15342;SDS011;7771;48.478;8.936;2022-12-20T01:16:15;59.90;;;37.17;;
15342;SDS011;7771;48.478;8.936;2022-12-20T01:18:40;60.43;;;38.17;;
15342;SDS011;7771;48.478;8.936;2022-12-20T01:21:08;64.70;;;39.33;;
15342;SDS011;7771;48.478;8.936;2022-12-20T01:23:34;64.33;;;38.57;;
15342;SDS011;7771;48.478;8.936;2022-12-20T01:26:01;65.50;;;38.50;;
15342;SDS011;7771;48.478;8.936;2022-12-20T01:28:27;54.97;;;33.83;;
15342;SDS011;7771;48.478;8.936;2022-12-20T01:30:54;54.20;;;35.43;;
15342;SDS011;7771;48.478;8.936;2022-12-20T01:33:21;51.87;;;34.80;;
15342;SDS011;7771;48.478;8.936;2022-12-20T01:36:04;55.63;;;35.67;;
15342;SDS011;7771;48.478;8.936;2022-12-20T01:38:29;55.93;;;34.13;;
15342;SDS011;7771;48.478;8.936;2022-12-20T01:40:57;52.77;;;34.13;;
15342;SDS011;7771;48.478;8.936;2022-12-20T01:43:25;61.53;;;36.67;;
15342;SDS011;7771;48.478;8.936;2022-12-20T01:45:51;55.97;;;34.17;;
15342;SDS011;7771;48.478;8.936;2022-12-20T01:48:20;55.57;;;33.37;;
15342;SDS011;7771;48.478;8.936;2022-12-20T01:50:45;47.30;;;28.93;;
15342;SDS011;7771;48.478;8.936;2022-12-20T01:53:11;67.00;;;41.13;;
15342;SDS011;7771;48.478;8.936;2022-12-20T01:55:38;65.80;;;41.63;;
15342;SDS011;7771;48.478;8.936;2022-12-20T01:58:07;57.07;;;36.83;;
15342;SDS011;7771;48.478;8.936;2022-12-20T02:00:32;39.47;;;24.73;;
15342;SDS011;7771;48.478;8.936;2022-12-20T02:02:59;41.97;;;27.30;;
15342;SDS011;7771;48.478;8.936;2022-12-20T02:05:26;61.13;;;40.50;;
15342;SDS011;7771;48.478;8.936;2022-12-20T02:07:53;62.93;;;37.90;;
15342;SDS011;7771;48.478;8.936;2022-12-20T02:10:20;62.87;;;37.63;;
15342;SDS011;7771;48.478;8.936;2022-12-20T02:12:46;53.03;;;31.93;;
15342;SDS011;7771;48.478;8.936;2022-12-20T02:15:20;40.23;;;24.97;;
15342;SDS011;7771;48.478;8.936;2022-12-20T02:17:56;37.57;;;23.10;;
15342;SDS011;7771;48.478;8.936;2022-12-20T02:29:01;26.67;;;17.93;;
15342;SDS011;7771;48.478;8.936;2022-12-20T02:31:33;26.47;;;16.83;;
15342;SDS011;7771;48.478;8.936;2022-12-20T02:33:59;28.77;;;17.10;;
15342;SDS011;7771;48.478;8.936;2022-12-20T02:36:25;26.03;;;18.03;;
15342;SDS011;7771;48.478;8.936;2022-12-20T02:38:52;35.33;;;24.20;;
15342;SDS011;7771;48.478;8.936;2022-12-20T02:41:20;47.23;;;28.47;;
15342;SDS011;7771;48.478;8.936;2022-12-20T02:43:52;33.97;;;23.00;;
15342;SDS011;7771;48.478;8.936;2022-12-20T02:46:23;30.83;;;21.07;;
15342;SDS011;7771;48.478;8.936;2022-12-20T02:48:49;26.47;;;17.83;;
15342;SDS011;7771;48.478;8.936;2022-12-20T02:51:16;26.27;;;17.63;;
15342;SDS011;7771;48.478;8.936;2022-12-20T02:53:44;24.23;;;17.53;;
15342;SDS011;7771;48.478;8.936;2022-12-20T02:56:13;27.30;;;18.43;;
15342;SDS011;7771;48.478;8.936;2022-12-20T03:01:19;23.73;;;15.83;;
15342;SDS011;7771;48.478;8.936;2022-12-20T03:03:43;25.03;;;17.90;;
15342;SDS011;7771;48.478;8.936;2022-12-20T03:06:10;26.80;;;16.83;;
15342;SDS011;7771;48.478;8.936;2022-12-20T03:08:37;26.00;;;16.13;;
15342;SDS011;7771;48.478;8.936;2022-12-20T03:11:04;29.90;;;17.57;;
15342;SDS011;7771;48.478;8.936;2022-12-20T03:13:31;26.73;;;17.87;;
15342;SDS011;7771;48.478;8.936;2022-12-20T03:15:57;25.73;;;17.27;;
15342;SDS011;7771;48.478;8.936;2022-12-20T03:18:24;28.30;;;17.80;;
15342;SDS011;7771;48.478;8.936;2022-12-20T03:20:52;29.57;;;17.83;;
15342;SDS011;7771;48.478;8.936;2022-12-20T03:23:19;27.10;;;18.03;;
15342;SDS011;7771;48.478;8.936;2022-12-20T03:25:46;26.23;;;17.37;;
15342;SDS011;7771;48.478;8.936;2022-12-20T03:28:13;27.47;;;17.33;;
15342;SDS011;7771;48.478;8.936;2022-12-20T03:30:40;27.80;;;18.40;;
15342;SDS011;7771;48.478;8.936;2022-12-20T03:33:08;27.73;;;18.50;;
15342;SDS011;7771;48.478;8.936;2022-12-20T03:35:34;29.57;;;17.90;;
15342;SDS011;7771;48.478;8.936;2022-12-20T03:38:01;27.50;;;16.97;;
15342;SDS011;7771;48.478;8.936;2022-12-20T03:40:28;22.37;;;15.57;;
15342;SDS011;7771;48.478;8.936;2022-12-20T03:42:55;20.13;;;14.40;;
15342;SDS011;7771;48.478;8.936;2022-12-20T03:45:23;23.10;;;14.93;;
15342;SDS011;7771;48.478;8.936;2022-12-20T03:47:50;21.47;;;15.40;;
15342;SDS011;7771;48.478;8.936;2022-12-20T03:50:17;23.70;;;14.83;;
15342;SDS011;7771;48.478;8.936;2022-12-20T03:52:44;20.00;;;13.50;;
15342;SDS011;7771;48.478;8.936;2022-12-20T03:55:10;20.60;;;13.70;;
15342;SDS011;7771;48.478;8.936;2022-12-20T03:57:38;19.77;;;13.27;;
15342;SDS011;7771;48.478;8.936;2022-12-20T04:00:05;17.63;;;12.70;;
15342;SDS011;7771;48.478;8.936;2022-12-20T04:02:32;19.60;;;13.93;;
15342;SDS011;7771;48.478;8.936;2022-12-20T04:04:59;20.50;;;13.80;;
15342;SDS011;7771;48.478;8.936;2022-12-20T04:07:26;20.33;;;13.30;;
15342;SDS011;7771;48.478;8.936;2022-12-20T04:09:53;20.97;;;13.23;;
15342;SDS011;7771;48.478;8.936;2022-12-20T04:12:19;18.90;;;12.10;;
15342;SDS011;7771;48.478;8.936;2022-12-20T04:14:46;20.37;;;12.83;;
15342;SDS011;7771;48.478;8.936;2022-12-20T04:17:13;19.60;;;13.07;;
15342;SDS011;7771;48.478;8.936;2022-12-20T04:19:40;18.27;;;12.40;;
15342;SDS011;7771;48.478;8.936;2022-12-20T04:22:07;21.73;;;14.37;;
15342;SDS011;7771;48.478;8.936;2022-12-20T04:24:35;22.70;;;13.63;;
15342;SDS011;7771;48.478;8.936;2022-12-20T04:27:01;25.23;;;16.33;;
15342;SDS011;7771;48.478;8.936;2022-12-20T04:29:28;25.90;;;16.10;;
15342;SDS011;7771;48.478;8.936;2022-12-20T04:31:55;25.00;;;15.57;;
15342;SDS011;7771;48.478;8.936;2022-12-20T04:34:22;19.60;;;14.00;;
15342;SDS011;7771;48.478;8.936;2022-12-20T04:36:48;17.77;;;12.27;;
15342;SDS011;7771;48.478;8.936;2022-12-20T04:39:15;21.83;;;13.63;;
15342;SDS011;7771;48.478;8.936;2022-12-20T04:41:42;19.63;;;13.23;;
15342;SDS011;7771;48.478;8.936;2022-12-20T04:44:08;19.87;;;13.27;;
15342;SDS011;7771;48.478;8.936;2022-12-20T04:46:35;20.57;;;14.97;;
15342;SDS011;7771;48.478;8.936;2022-12-20T04:49:02;25.70;;;16.40;;
15342;SDS011;7771;48.478;8.936;2022-12-20T04:51:29;21.67;;;14.47;;
15342;SDS011;7771;48.478;8.936;2022-12-20T04:53:56;23.10;;;14.43;;
15342;SDS011;7771;48.478;8.936;2022-12-20T04:56:24;19.87;;;13.53;;
15342;SDS011;7771;48.478;8.936;2022-12-20T04:58:51;21.93;;;14.17;;
15342;SDS011;7771;48.478;8.936;2022-12-20T05:01:17;22.40;;;14.50;;
15342;SDS011;7771;48.478;8.936;2022-12-20T05:03:43;20.80;;;13.97;;
15342;SDS011;7771;48.478;8.936;2022-12-20T05:06:10;20.97;;;13.00;;
15342;SDS011;7771;48.478;8.936;2022-12-20T05:08:37;18.70;;;12.03;;
15342;SDS011;7771;48.478;8.936;2022-12-20T05:11:04;18.63;;;12.17;;
15342;SDS011;7771;48.478;8.936;2022-12-20T05:13:31;17.40;;;11.93;;
15342;SDS011;7771;48.478;8.936;2022-12-20T05:15:57;19.60;;;12.07;;
15342;SDS011;7771;48.478;8.936;2022-12-20T05:18:25;20.87;;;13.53;;
15342;SDS011;7771;48.478;8.936;2022-12-20T05:20:55;22.37;;;14.87;;
15342;SDS011;7771;48.478;8.936;2022-12-20T05:23:36;17.83;;;12.37;;
15342;SDS011;7771;48.478;8.936;2022-12-20T05:26:08;16.13;;;11.70;;
15342;SDS011;7771;48.478;8.936;2022-12-20T05:28:40;18.83;;;11.53;;
15342;SDS011;7771;48.478;8.936;2022-12-20T05:31:07;30.60;;;17.07;;
15342;SDS011;7771;48.478;8.936;2022-12-20T05:33:34;26.80;;;16.40;;
15342;SDS011;7771;48.478;8.936;2022-12-20T05:36:01;13.93;;;10.07;;
15342;SDS011;7771;48.478;8.936;2022-12-20T05:38:28;15.93;;;9.53;;
15342;SDS011;7771;48.478;8.936;2022-12-20T05:40:55;14.23;;;9.37;;
15342;SDS011;7771;48.478;8.936;2022-12-20T05:43:22;13.47;;;9.83;;
15342;SDS011;7771;48.478;8.936;2022-12-20T05:45:50;25.10;;;15.33;;
15342;SDS011;7771;48.478;8.936;2022-12-20T05:48:17;45.13;;;25.40;;
15342;SDS011;7771;48.478;8.936;2022-12-20T05:50:44;41.93;;;26.23;;
15342;SDS011;7771;48.478;8.936;2022-12-20T05:53:11;30.33;;;23.07;;
15342;SDS011;7771;48.478;8.936;2022-12-20T05:55:43;37.07;;;24.77;;
15342;SDS011;7771;48.478;8.936;2022-12-20T05:58:10;62.13;;;43.03;;
15342;SDS011;7771;48.478;8.936;2022-12-20T06:00:38;48.13;;;31.60;;
15342;SDS011;7771;48.478;8.936;2022-12-20T06:03:05;30.93;;;20.80;;
15342;SDS011;7771;48.478;8.936;2022-12-20T06:05:32;40.40;;;28.23;;
15342;SDS011;7771;48.478;8.936;2022-12-20T06:07:59;41.87;;;30.00;;
15342;SDS011;7771;48.478;8.936;2022-12-20T06:10:26;40.27;;;26.03;;
15342;SDS011;7771;48.478;8.936;2022-12-20T06:12:53;34.57;;;23.03;;
15342;SDS011;7771;48.478;8.936;2022-12-20T06:15:19;32.93;;;21.33;;
15342;SDS011;7771;48.478;8.936;2022-12-20T06:17:46;28.30;;;20.13;;
15342;SDS011;7771;48.478;8.936;2022-12-20T06:20:13;27.70;;;19.53;;
15342;SDS011;7771;48.478;8.936;2022-12-20T06:22:39;27.80;;;19.07;;
15342;SDS011;7771;48.478;8.936;2022-12-20T06:25:06;25.03;;;17.10;;
15342;SDS011;7771;48.478;8.936;2022-12-20T06:27:34;25.67;;;17.30;;
15342;SDS011;7771;48.478;8.936;2022-12-20T06:30:00;22.47;;;15.00;;
15342;SDS011;7771;48.478;8.936;2022-12-20T06:32:27;21.43;;;14.23;;
15342;SDS011;7771;48.478;8.936;2022-12-20T06:34:55;25.57;;;15.80;;
15342;SDS011;7771;48.478;8.936;2022-12-20T06:37:22;23.67;;;15.10;;
15342;SDS011;7771;48.478;8.936;2022-12-20T06:39:49;26.43;;;17.00;;
15342;SDS011;7771;48.478;8.936;2022-12-20T06:42:16;21.73;;;15.37;;
15342;SDS011;7771;48.478;8.936;2022-12-20T06:44:44;16.90;;;13.07;;
15342;SDS011;7771;48.478;8.936;2022-12-20T06:47:12;23.57;;;14.93;;
15342;SDS011;7771;48.478;8.936;2022-12-20T06:49:39;26.17;;;17.13;;
15342;SDS011;7771;48.478;8.936;2022-12-20T06:52:07;31.60;;;20.43;;
15342;SDS011;7771;48.478;8.936;2022-12-20T06:54:34;31.93;;;22.30;;
15342;SDS011;7771;48.478;8.936;2022-12-20T06:57:01;24.23;;;17.60;;
15342;SDS011;7771;48.478;8.936;2022-12-20T06:59:27;39.63;;;24.27;;
15342;SDS011;7771;48.478;8.936;2022-12-20T07:01:55;51.47;;;42.10;;
15342;SDS011;7771;48.478;8.936;2022-12-20T07:04:23;46.90;;;35.90;;
15342;SDS011;7771;48.478;8.936;2022-12-20T07:06:49;41.30;;;29.10;;
15342;SDS011;7771;48.478;8.936;2022-12-20T07:09:17;37.30;;;24.50;;
15342;SDS011;7771;48.478;8.936;2022-12-20T07:11:43;37.87;;;25.27;;
15342;SDS011;7771;48.478;8.936;2022-12-20T07:14:10;41.37;;;27.33;;
15342;SDS011;7771;48.478;8.936;2022-12-20T07:16:38;35.03;;;24.53;;
15342;SDS011;7771;48.478;8.936;2022-12-20T07:19:05;31.10;;;22.77;;
15342;SDS011;7771;48.478;8.936;2022-12-20T07:21:32;31.63;;;21.73;;
15342;SDS011;7771;48.478;8.936;2022-12-20T07:23:59;28.17;;;19.90;;
15342;SDS011;7771;48.478;8.936;2022-12-20T07:26:26;30.87;;;20.73;;
15342;SDS011;7771;48.478;8.936;2022-12-20T07:28:53;25.17;;;19.57;;
15342;SDS011;7771;48.478;8.936;2022-12-20T07:31:20;27.87;;;19.73;;
15342;SDS011;7771;48.478;8.936;2022-12-20T07:33:47;27.03;;;20.47;;
15342;SDS011;7771;48.478;8.936;2022-12-20T07:36:14;27.47;;;19.87;;
15342;SDS011;7771;48.478;8.936;2022-12-20T07:38:41;28.40;;;20.03;;
15342;SDS011;7771;48.478;8.936;2022-12-20T07:41:09;31.47;;;21.67;;
15342;SDS011;7771;48.478;8.936;2022-12-20T07:43:36;27.50;;;20.97;;
15342;SDS011;7771;48.478;8.936;2022-12-20T07:46:03;28.47;;;21.27;;
15342;SDS011;7771;48.478;8.936;2022-12-20T07:48:30;33.00;;;24.03;;
15342;SDS011;7771;48.478;8.936;2022-12-20T07:50:58;33.87;;;24.07;;
15342;SDS011;7771;48.478;8.936;2022-12-20T07:53:23;28.93;;;21.87;;
15342;SDS011;7771;48.478;8.936;2022-12-20T07:55:50;31.20;;;22.70;;
15342;SDS011;7771;48.478;8.936;2022-12-20T07:58:17;32.87;;;22.33;;
15342;SDS011;7771;48.478;8.936;2022-12-20T08:00:45;31.17;;;22.20;;
15342;SDS011;7771;48.478;8.936;2022-12-20T08:03:17;33.60;;;22.87;;
15342;SDS011;7771;48.478;8.936;2022-12-20T08:05:45;47.30;;;36.77;;
15342;SDS011;7771;48.478;8.936;2022-12-20T08:08:11;45.60;;;30.07;;
15342;SDS011;7771;48.478;8.936;2022-12-20T08:10:37;58.03;;;34.97;;
15342;SDS011;7771;48.478;8.936;2022-12-20T08:13:04;73.23;;;44.30;;
15342;SDS011;7771;48.478;8.936;2022-12-20T08:15:32;76.47;;;43.10;;
15342;SDS011;7771;48.478;8.936;2022-12-20T08:17:59;70.20;;;43.80;;
15342;SDS011;7771;48.478;8.936;2022-12-20T08:20:26;69.80;;;43.67;;
15342;SDS011;7771;48.478;8.936;2022-12-20T08:22:52;59.37;;;36.23;;
15342;SDS011;7771;48.478;8.936;2022-12-20T08:25:20;56.43;;;37.00;;
15342;SDS011;7771;48.478;8.936;2022-12-20T08:27:47;63.00;;;39.60;;
15342;SDS011;7771;48.478;8.936;2022-12-20T08:30:14;69.47;;;42.77;;
15342;SDS011;7771;48.478;8.936;2022-12-20T08:32:41;62.70;;;39.27;;
15342;SDS011;7771;48.478;8.936;2022-12-20T08:35:08;63.30;;;39.73;;
15342;SDS011;7771;48.478;8.936;2022-12-20T08:37:35;63.07;;;41.03;;
15342;SDS011;7771;48.478;8.936;2022-12-20T08:40:02;66.50;;;41.17;;
15342;SDS011;7771;48.478;8.936;2022-12-20T08:42:29;70.17;;;42.87;;
15342;SDS011;7771;48.478;8.936;2022-12-20T08:44:56;64.63;;;40.53;;
15342;SDS011;7771;48.478;8.936;2022-12-20T08:47:24;67.27;;;41.50;;
15342;SDS011;7771;48.478;8.936;2022-12-20T08:49:51;70.97;;;40.73;;
15342;SDS011;7771;48.478;8.936;2022-12-20T08:52:18;69.73;;;42.17;;
15342;SDS011;7771;48.478;8.936;2022-12-20T08:54:45;164.20;;;78.60;;
15342;SDS011;7771;48.478;8.936;2022-12-20T08:57:12;192.70;;;96.40;;
15342;SDS011;7771;48.478;8.936;2022-12-20T08:59:39;226.60;;;110.23;;
15342;SDS011;7771;48.478;8.936;2022-12-20T09:02:06;206.83;;;99.30;;
15342;SDS011;7771;48.478;8.936;2022-12-20T09:04:33;167.60;;;83.00;;
15342;SDS011;7771;48.478;8.936;2022-12-20T09:07:00;153.17;;;75.30;;
15342;SDS011;7771;48.478;8.936;2022-12-20T09:09:26;159.87;;;79.17;;
15342;SDS011;7771;48.478;8.936;2022-12-20T09:11:54;162.50;;;81.70;;
15342;SDS011;7771;48.478;8.936;2022-12-20T09:14:21;158.30;;;80.50;;
15342;SDS011;7771;48.478;8.936;2022-12-20T09:16:48;156.33;;;75.47;;
15342;SDS011;7771;48.478;8.936;2022-12-20T09:19:15;141.17;;;71.13;;
15342;SDS011;7771;48.478;8.936;2022-12-20T09:21:42;135.87;;;67.50;;
15342;SDS011;7771;48.478;8.936;2022-12-20T09:24:08;124.47;;;64.53;;
15342;SDS011;7771;48.478;8.936;2022-12-20T09:26:36;117.37;;;60.63;;
15342;SDS011;7771;48.478;8.936;2022-12-20T09:29:03;108.40;;;56.80;;
15342;SDS011;7771;48.478;8.936;2022-12-20T09:31:30;100.60;;;53.13;;
15342;SDS011;7771;48.478;8.936;2022-12-20T09:33:57;95.67;;;52.47;;
15342;SDS011;7771;48.478;8.936;2022-12-20T09:36:24;94.80;;;50.20;;
15342;SDS011;7771;48.478;8.936;2022-12-20T09:38:51;90.60;;;49.53;;
15342;SDS011;7771;48.478;8.936;2022-12-20T09:41:21;86.07;;;48.27;;
15342;SDS011;7771;48.478;8.936;2022-12-20T09:43:47;86.03;;;51.00;;
15342;SDS011;7771;48.478;8.936;2022-12-20T09:46:14;71.27;;;45.17;;
15342;SDS011;7771;48.478;8.936;2022-12-20T09:48:43;59.03;;;38.80;;
15342;SDS011;7771;48.478;8.936;2022-12-20T09:51:17;83.30;;;49.33;;
15342;SDS011;7771;48.478;8.936;2022-12-20T09:53:59;90.67;;;51.37;;
15342;SDS011;7771;48.478;8.936;2022-12-20T09:56:40;83.20;;;48.60;;
15342;SDS011;7771;48.478;8.936;2022-12-20T09:59:10;94.53;;;55.00;;
15342;SDS011;7771;48.478;8.936;2022-12-20T10:01:36;84.10;;;49.87;;
15342;SDS011;7771;48.478;8.936;2022-12-20T10:04:04;71.70;;;44.97;;
15342;SDS011;7771;48.478;8.936;2022-12-20T10:06:39;70.20;;;44.53;;
15342;SDS011;7771;48.478;8.936;2022-12-20T10:09:09;62.00;;;38.87;;
15342;SDS011;7771;48.478;8.936;2022-12-20T10:12:50;58.10;;;36.93;;
15342;SDS011;7771;48.478;8.936;2022-12-20T10:17:30;64.53;;;38.37;;
15342;SDS011;7771;48.478;8.936;2022-12-20T10:22:58;51.37;;;30.10;;
15342;SDS011;7771;48.478;8.936;2022-12-20T10:25:29;39.90;;;26.47;;
15342;SDS011;7771;48.478;8.936;2022-12-20T10:27:55;61.00;;;35.67;;
15342;SDS011;7771;48.478;8.936;2022-12-20T10:30:23;58.10;;;36.80;;
15342;SDS011;7771;48.478;8.936;2022-12-20T10:32:49;62.10;;;37.53;;
15342;SDS011;7771;48.478;8.936;2022-12-20T10:35:24;60.97;;;40.03;;
15342;SDS011;7771;48.478;8.936;2022-12-20T10:37:57;56.00;;;36.87;;
15342;SDS011;7771;48.478;8.936;2022-12-20T10:40:26;59.27;;;36.10;;
15342;SDS011;7771;48.478;8.936;2022-12-20T10:42:51;53.87;;;35.73;;
15342;SDS011;7771;48.478;8.936;2022-12-20T10:45:26;62.60;;;37.80;;
15342;SDS011;7771;48.478;8.936;2022-12-20T10:47:57;68.13;;;39.50;;
15342;SDS011;7771;48.478;8.936;2022-12-20T10:50:23;91.53;;;51.47;;
15342;SDS011;7771;48.478;8.936;2022-12-20T10:55:41;51.83;;;33.57;;
15342;SDS011;7771;48.478;8.936;2022-12-20T10:58:13;42.30;;;28.40;;
15342;SDS011;7771;48.478;8.936;2022-12-20T11:00:40;37.97;;;28.40;;
15342;SDS011;7771;48.478;8.936;2022-12-20T11:03:12;34.73;;;22.83;;
15342;SDS011;7771;48.478;8.936;2022-12-20T11:05:37;34.00;;;23.37;;
15342;SDS011;7771;48.478;8.936;2022-12-20T11:08:08;52.10;;;31.67;;
15342;SDS011;7771;48.478;8.936;2022-12-20T11:10:33;40.30;;;24.80;;
15342;SDS011;7771;48.478;8.936;2022-12-20T11:13:02;36.00;;;24.20;;
15342;SDS011;7771;48.478;8.936;2022-12-20T11:15:29;41.23;;;26.67;;
15342;SDS011;7771;48.478;8.936;2022-12-20T11:17:57;34.43;;;23.37;;
15342;SDS011;7771;48.478;8.936;2022-12-20T11:20:37;34.50;;;23.47;;
15342;SDS011;7771;48.478;8.936;2022-12-20T11:23:14;33.90;;;23.50;;
15342;SDS011;7771;48.478;8.936;2022-12-20T11:25:42;34.03;;;20.43;;
15342;SDS011;7771;48.478;8.936;2022-12-20T11:30:48;30.40;;;18.83;;
15342;SDS011;7771;48.478;8.936;2022-12-20T11:33:41;35.17;;;20.23;;
15342;SDS011;7771;48.478;8.936;2022-12-20T11:36:16;36.70;;;20.63;;
15342;SDS011;7771;48.478;8.936;2022-12-20T11:38:49;39.10;;;23.37;;
15342;SDS011;7771;48.478;8.936;2022-12-20T11:41:37;37.80;;;23.37;;
15342;SDS011;7771;48.478;8.936;2022-12-20T11:44:08;38.57;;;22.47;;
15342;SDS011;7771;48.478;8.936;2022-12-20T11:46:39;34.37;;;21.80;;
15342;SDS011;7771;48.478;8.936;2022-12-20T11:49:32;38.57;;;25.07;;
15342;SDS011;7771;48.478;8.936;2022-12-20T11:52:09;40.33;;;26.23;;
15342;SDS011;7771;48.478;8.936;2022-12-20T11:54:40;31.80;;;19.50;;
15342;SDS011;7771;48.478;8.936;2022-12-20T11:57:15;22.70;;;16.77;;
15342;SDS011;7771;48.478;8.936;2022-12-20T11:59:47;20.53;;;16.17;;
15342;SDS011;7771;48.478;8.936;2022-12-20T12:02:17;23.67;;;16.70;;
15342;SDS011;7771;48.478;8.936;2022-12-20T12:04:59;34.70;;;23.13;;
15342;SDS011;7771;48.478;8.936;2022-12-20T12:07:26;55.03;;;36.60;;
15342;SDS011;7771;48.478;8.936;2022-12-20T12:09:58;61.70;;;39.10;;
15342;SDS011;7771;48.478;8.936;2022-12-20T12:12:26;59.17;;;39.17;;
15342;SDS011;7771;48.478;8.936;2022-12-20T12:14:58;69.07;;;42.10;;
15342;SDS011;7771;48.478;8.936;2022-12-20T12:17:28;68.20;;;41.90;;
15342;SDS011;7771;48.478;8.936;2022-12-20T12:20:14;66.13;;;42.00;;
15342;SDS011;7771;48.478;8.936;2022-12-20T12:22:52;63.17;;;40.77;;
15342;SDS011;7771;48.478;8.936;2022-12-20T12:25:17;58.43;;;37.17;;
15342;SDS011;7771;48.478;8.936;2022-12-20T12:27:44;51.40;;;37.00;;
15342;SDS011;7771;48.478;8.936;2022-12-20T12:30:12;51.60;;;33.93;;
15342;SDS011;7771;48.478;8.936;2022-12-20T12:32:49;36.77;;;25.20;;
15342;SDS011;7771;48.478;8.936;2022-12-20T12:37:54;32.17;;;22.80;;
15342;SDS011;7771;48.478;8.936;2022-12-20T12:45:47;46.50;;;30.57;;
15342;SDS011;7771;48.478;8.936;2022-12-20T12:48:20;47.70;;;30.93;;
15342;SDS011;7771;48.478;8.936;2022-12-20T12:50:49;48.90;;;30.87;;
15342;SDS011;7771;48.478;8.936;2022-12-20T12:53:19;44.70;;;31.50;;
15342;SDS011;7771;48.478;8.936;2022-12-20T12:55:47;42.23;;;30.07;;
15342;SDS011;7771;48.478;8.936;2022-12-20T12:58:27;46.50;;;31.43;;
15342;SDS011;7771;48.478;8.936;2022-12-20T13:00:56;46.30;;;30.87;;
15342;SDS011;7771;48.478;8.936;2022-12-20T13:09:17;41.23;;;30.10;;
15342;SDS011;7771;48.478;8.936;2022-12-20T13:11:43;48.13;;;31.10;;
15342;SDS011;7771;48.478;8.936;2022-12-20T13:14:45;50.30;;;34.23;;
15342;SDS011;7771;48.478;8.936;2022-12-20T13:16:38;61.30;;;38.57;;
15342;SDS011;7771;48.478;8.936;2022-12-20T13:19:11;50.93;;;35.73;;
15342;SDS011;7771;48.478;8.936;2022-12-20T13:21:39;31.27;;;22.83;;
15342;SDS011;7771;48.478;8.936;2022-12-20T13:26:49;29.63;;;19.73;;
15342;SDS011;7771;48.478;8.936;2022-12-20T13:31:49;33.60;;;22.37;;
15342;SDS011;7771;48.478;8.936;2022-12-20T13:37:00;55.30;;;36.37;;
15342;SDS011;7771;48.478;8.936;2022-12-20T13:39:29;61.10;;;41.57;;
15342;SDS011;7771;48.478;8.936;2022-12-20T13:44:33;63.17;;;41.40;;
15342;SDS011;7771;48.478;8.936;2022-12-20T13:47:01;62.17;;;42.77;;
15342;SDS011;7771;48.478;8.936;2022-12-20T13:49:28;71.17;;;46.57;;
15342;SDS011;7771;48.478;8.936;2022-12-20T13:52:05;63.10;;;45.40;;
15342;SDS011;7771;48.478;8.936;2022-12-20T13:54:29;69.13;;;45.23;;
15342;SDS011;7771;48.478;8.936;2022-12-20T13:56:56;66.03;;;47.13;;
15342;SDS011;7771;48.478;8.936;2022-12-20T13:59:25;69.73;;;45.77;;
15342;SDS011;7771;48.478;8.936;2022-12-20T14:01:53;61.87;;;44.23;;
15342;SDS011;7771;48.478;8.936;2022-12-20T14:04:19;64.97;;;43.83;;
15342;SDS011;7771;48.478;8.936;2022-12-20T14:06:51;63.57;;;41.50;;
15342;SDS011;7771;48.478;8.936;2022-12-20T14:09:26;60.40;;;43.37;;
15342;SDS011;7771;48.478;8.936;2022-12-20T14:11:52;63.30;;;42.80;;
15342;SDS011;7771;48.478;8.936;2022-12-20T14:14:19;61.17;;;42.57;;
15342;SDS011;7771;48.478;8.936;2022-12-20T14:16:46;59.40;;;41.27;;
15342;SDS011;7771;48.478;8.936;2022-12-20T14:19:13;53.97;;;38.03;;
15342;SDS011;7771;48.478;8.936;2022-12-20T14:21:41;54.67;;;38.13;;
15342;SDS011;7771;48.478;8.936;2022-12-20T14:24:08;53.70;;;38.43;;
15342;SDS011;7771;48.478;8.936;2022-12-20T14:26:35;56.30;;;39.17;;
15342;SDS011;7771;48.478;8.936;2022-12-20T14:29:00;46.20;;;35.43;;
15342;SDS011;7771;48.478;8.936;2022-12-20T14:34:17;47.07;;;34.47;;
15342;SDS011;7771;48.478;8.936;2022-12-20T14:36:46;52.23;;;36.83;;
15342;SDS011;7771;48.478;8.936;2022-12-20T14:41:46;38.23;;;27.57;;
15342;SDS011;7771;48.478;8.936;2022-12-20T14:44:15;38.30;;;27.13;;
15342;SDS011;7771;48.478;8.936;2022-12-20T14:46:47;39.17;;;25.60;;
15342;SDS011;7771;48.478;8.936;2022-12-20T14:49:18;38.67;;;26.93;;
15342;SDS011;7771;48.478;8.936;2022-12-20T14:51:44;46.77;;;30.90;;
15342;SDS011;7771;48.478;8.936;2022-12-20T14:54:14;44.57;;;29.93;;
15342;SDS011;7771;48.478;8.936;2022-12-20T14:56:37;50.83;;;34.87;;
15342;SDS011;7771;48.478;8.936;2022-12-20T14:59:10;52.17;;;33.67;;
15342;SDS011;7771;48.478;8.936;2022-12-20T15:01:31;47.30;;;34.07;;
15342;SDS011;7771;48.478;8.936;2022-12-20T15:03:59;49.87;;;34.17;;
15342;SDS011;7771;48.478;8.936;2022-12-20T15:06:30;41.97;;;31.43;;
15342;SDS011;7771;48.478;8.936;2022-12-20T15:08:58;46.33;;;31.17;;
15342;SDS011;7771;48.478;8.936;2022-12-20T15:11:25;38.20;;;28.53;;
15342;SDS011;7771;48.478;8.936;2022-12-20T15:13:52;41.07;;;24.90;;
15342;SDS011;7771;48.478;8.936;2022-12-20T15:16:21;30.43;;;22.70;;
15342;SDS011;7771;48.478;8.936;2022-12-20T15:18:48;27.27;;;21.03;;
15342;SDS011;7771;48.478;8.936;2022-12-20T15:21:16;26.20;;;20.67;;
15342;SDS011;7771;48.478;8.936;2022-12-20T15:23:45;27.50;;;20.73;;
15342;SDS011;7771;48.478;8.936;2022-12-20T15:26:14;26.50;;;19.23;;
15342;SDS011;7771;48.478;8.936;2022-12-20T15:28:41;29.50;;;20.87;;
15342;SDS011;7771;48.478;8.936;2022-12-20T15:31:09;25.57;;;19.30;;